John D. Leitch — VGWM — position and weather

sailwx.info

Track history (hours):
 
Tides and Currents Weather Stations Pressure Air Temp Water Temp Dewpoint Dewpoint Depression Visibility Wind Speed Wind Dir Waves Ship Positions

John D. Leitch

ex Canadian Century

Last reported at 2017-Oct-18 07:25 UTC. Time now 2017-Oct-18 20:32 UTC.
Position N 45°29' W 073°31'.

Length 222 m; draft 8.2 m.

Type: Cargo ship. MMSI: 316001701.

Date/timePositionNaut miles runAvg speedWind from/ knotsBaromVisibWave heightAir tempDewpointWater temp
2017-Oct-18 07:25N 45°29' W 073°31'3 5.5
2017-Oct-18 06:51N 45°25' W 073°30'2 5.6
2017-Oct-18 06:31N 45°24' W 073°33'1 1.8
2017-Oct-18 06:01N 45°24' W 073°34'0 0.6
2017-Oct-18 05:31N 45°24' W 073°34'1 1.7
2017-Oct-18 05:00N 45°24' W 073°36'3 4.7
2017-Oct-18 04:26N 45°25' W 073°39'2 5.3
2017-Oct-18 04:00N 45°25' W 073°43'4 8.3
2017-Oct-18 03:30N 45°23' W 073°48'510.9
2017-Oct-18 03:00N 45°20' W 073°54'1 2.1
2017-Oct-18 02:31N 45°19' W 073°55'1 1.2
2017-Oct-18 02:01N 45°18' W 073°55'0 0.5
2017-Oct-18 01:31N 45°18' W 073°56'1 1.8
2017-Oct-18 01:00N 45°17' W 073°56'5 6.5
2017-Oct-18 00:17N 45°14' W 074°01'6 9.5
2017-Oct-17 23:42N 45°14' W 074°08'  
2017-Oct-14 11:51N 45°32' W 083°21'357 9.4
2017-Oct-12 21:48N 46°55' W 091°43'311.7
2017-Oct-12 21:30N 46°53' W 091°47'611.6
2017-Oct-12 21:01N 46°50' W 091°55'611.3
2017-Oct-12 20:30N 46°48' W 092°02'3 6.2
2017-Oct-12 20:00N 46°46' W 092°06'1 2.8
2017-Oct-12 19:30N 46°45' W 092°07'1 1.6
2017-Oct-12 19:00N 46°45' W 092°08'0 0.8
2017-Oct-12 18:30N 46°45' W 092°08'0 0.0
2017-Oct-12 18:00N 46°45' W 092°08'0 0.0
2017-Oct-12 17:30N 46°45' W 092°08'0 0.0
2017-Oct-12 17:00N 46°45' W 092°08'0 0.0
2017-Oct-12 16:30N 46°45' W 092°08'0 0.0
2017-Oct-12 16:00N 46°45' W 092°08'0 0.0
2017-Oct-12 15:30N 46°45' W 092°08'0 0.0
2017-Oct-12 15:00N 46°45' W 092°08'0 0.0
2017-Oct-12 14:30N 46°45' W 092°08'0 0.0
2017-Oct-12 14:00N 46°45' W 092°08'0 0.0
2017-Oct-12 13:30N 46°45' W 092°08'0 0.0
2017-Oct-12 13:00N 46°45' W 092°08'0 0.0
2017-Oct-12 12:30N 46°45' W 092°08'0 0.0
2017-Oct-12 12:00N 46°45' W 092°08'0 0.0
2017-Oct-12 11:30N 46°45' W 092°08'0 0.0
2017-Oct-12 11:00N 46°45' W 092°08'0 0.0
2017-Oct-12 10:30N 46°45' W 092°08'0 0.0
2017-Oct-12 10:00N 46°45' W 092°08'0 0.0
2017-Oct-12 09:30N 46°45' W 092°08'0 0.0
2017-Oct-12 09:00N 46°45' W 092°08'0 0.0
2017-Oct-12 08:31N 46°45' W 092°08'0 0.0
2017-Oct-12 08:00N 46°45' W 092°08'0 0.0
2017-Oct-12 07:30N 46°45' W 092°08'0 0.0
2017-Oct-12 07:00N 46°45' W 092°08'0 0.0
2017-Oct-12 06:31N 46°45' W 092°08'0 0.0
2017-Oct-12 06:00N 46°45' W 092°08'0 0.0
2017-Oct-12 05:30N 46°45' W 092°08'0 0.0
2017-Oct-12 05:00N 46°45' W 092°08'0 0.0
2017-Oct-12 04:30N 46°45' W 092°08'0 0.0
2017-Oct-12 04:00N 46°45' W 092°08'0 0.0
2017-Oct-12 03:30N 46°45' W 092°08'0 0.0
2017-Oct-12 03:00N 46°45' W 092°08'0 0.0
2017-Oct-12 02:30N 46°45' W 092°08'0 0.0
2017-Oct-12 01:59N 46°45' W 092°08'0 0.0
2017-Oct-12 01:30N 46°45' W 092°08'0 0.0
2017-Oct-12 01:00N 46°45' W 092°08'0 0.0
2017-Oct-12 00:30N 46°45' W 092°08'0 0.0
2017-Oct-12 00:00N 46°45' W 092°08'0 0.0
2017-Oct-11 23:30N 46°45' W 092°08'0 0.0
2017-Oct-11 23:00N 46°45' W 092°08'0 0.0
2017-Oct-11 22:30N 46°45' W 092°08'0 0.0
2017-Oct-11 22:00N 46°45' W 092°08'0 0.0
2017-Oct-11 21:30N 46°45' W 092°08'0 0.0
2017-Oct-11 21:00N 46°45' W 092°08'0 0.0
2017-Oct-11 20:30N 46°45' W 092°08'0 0.0
2017-Oct-11 20:00N 46°45' W 092°08'0 0.0
2017-Oct-11 19:31N 46°45' W 092°08'1 1.3
2017-Oct-11 19:00N 46°45' W 092°07'1 2.9
2017-Oct-11 18:30N 46°45' W 092°06'2 3.4
2017-Oct-11 18:00N 46°47' W 092°05'4 8.6
2017-Oct-11 17:30N 46°49' W 091°59'612.4
2017-Oct-11 17:00N 46°51' W 091°51'321 9.6
2017-Oct-10 07:40N 46°15' W 084°06'14 9.0
2017-Oct-10 06:06N 46°03' W 083°56'1810.6
2017-Oct-10 04:24N 45°47' W 083°43'511.8
2017-Oct-10 04:00N 45°43' W 083°39'711.7
2017-Oct-10 03:26N 45°38' W 083°33'511.8
2017-Oct-10 03:00N 45°33' W 083°29'611.8
2017-Oct-10 02:30N 45°29' W 083°24'  
Track history (hours):
 
Tides and Currents Weather Stations Pressure Air Temp Water Temp Dewpoint Dewpoint Depression Visibility Wind Speed Wind Dir Waves Ship Positions

John D. Leitch

ex Canadian Century

Last reported at 2017-Oct-18 07:25 UTC. Time now 2017-Oct-18 20:32 UTC.
Position N 45°29' W 073°31'.

Length 222 m; draft 8.2 m.

Type: Cargo ship. MMSI: 316001701.

Date/timePositionNaut miles runAvg speedWind from/ knotsBaromVisibWave heightAir tempDewpointWater temp
2017-Oct-18 07:25N 45°29' W 073°31'3 5.5
2017-Oct-18 06:51N 45°25' W 073°30'2 5.6
2017-Oct-18 06:31N 45°24' W 073°33'1 1.8
2017-Oct-18 06:01N 45°24' W 073°34'0 0.6
2017-Oct-18 05:31N 45°24' W 073°34'1 1.7
2017-Oct-18 05:00N 45°24' W 073°36'3 4.7
2017-Oct-18 04:26N 45°25' W 073°39'2 5.3
2017-Oct-18 04:00N 45°25' W 073°43'4 8.3
2017-Oct-18 03:30N 45°23' W 073°48'510.9
2017-Oct-18 03:00N 45°20' W 073°54'1 2.1
2017-Oct-18 02:31N 45°19' W 073°55'1 1.2
2017-Oct-18 02:01N 45°18' W 073°55'0 0.5
2017-Oct-18 01:31N 45°18' W 073°56'1 1.8
2017-Oct-18 01:00N 45°17' W 073°56'5 6.5
2017-Oct-18 00:17N 45°14' W 074°01'6 9.5
2017-Oct-17 23:42N 45°14' W 074°08'  
2017-Oct-14 11:51N 45°32' W 083°21'357 9.4
2017-Oct-12 21:48N 46°55' W 091°43'311.7
2017-Oct-12 21:30N 46°53' W 091°47'611.6
2017-Oct-12 21:01N 46°50' W 091°55'611.3
2017-Oct-12 20:30N 46°48' W 092°02'3 6.2
2017-Oct-12 20:00N 46°46' W 092°06'1 2.8
2017-Oct-12 19:30N 46°45' W 092°07'1 1.6
2017-Oct-12 19:00N 46°45' W 092°08'0 0.8
2017-Oct-12 18:30N 46°45' W 092°08'0 0.0
2017-Oct-12 18:00N 46°45' W 092°08'0 0.0
2017-Oct-12 17:30N 46°45' W 092°08'0 0.0
2017-Oct-12 17:00N 46°45' W 092°08'0 0.0
2017-Oct-12 16:30N 46°45' W 092°08'0 0.0
2017-Oct-12 16:00N 46°45' W 092°08'0 0.0
2017-Oct-12 15:30N 46°45' W 092°08'0 0.0
2017-Oct-12 15:00N 46°45' W 092°08'0 0.0
2017-Oct-12 14:30N 46°45' W 092°08'0 0.0
2017-Oct-12 14:00N 46°45' W 092°08'0 0.0
2017-Oct-12 13:30N 46°45' W 092°08'0 0.0
2017-Oct-12 13:00N 46°45' W 092°08'0 0.0
2017-Oct-12 12:30N 46°45' W 092°08'0 0.0
2017-Oct-12 12:00N 46°45' W 092°08'0 0.0
2017-Oct-12 11:30N 46°45' W 092°08'0 0.0
2017-Oct-12 11:00N 46°45' W 092°08'0 0.0
2017-Oct-12 10:30N 46°45' W 092°08'0 0.0
2017-Oct-12 10:00N 46°45' W 092°08'0 0.0
2017-Oct-12 09:30N 46°45' W 092°08'0 0.0
2017-Oct-12 09:00N 46°45' W 092°08'0 0.0
2017-Oct-12 08:31N 46°45' W 092°08'0 0.0
2017-Oct-12 08:00N 46°45' W 092°08'0 0.0
2017-Oct-12 07:30N 46°45' W 092°08'0 0.0
2017-Oct-12 07:00N 46°45' W 092°08'0 0.0
2017-Oct-12 06:31N 46°45' W 092°08'0 0.0
2017-Oct-12 06:00N 46°45' W 092°08'0 0.0
2017-Oct-12 05:30N 46°45' W 092°08'0 0.0
2017-Oct-12 05:00N 46°45' W 092°08'0 0.0
2017-Oct-12 04:30N 46°45' W 092°08'0 0.0
2017-Oct-12 04:00N 46°45' W 092°08'0 0.0
2017-Oct-12 03:30N 46°45' W 092°08'0 0.0
2017-Oct-12 03:00N 46°45' W 092°08'0 0.0
2017-Oct-12 02:30N 46°45' W 092°08'0 0.0
2017-Oct-12 01:59N 46°45' W 092°08'0 0.0
2017-Oct-12 01:30N 46°45' W 092°08'0 0.0
2017-Oct-12 01:00N 46°45' W 092°08'0 0.0
2017-Oct-12 00:30N 46°45' W 092°08'0 0.0
2017-Oct-12 00:00N 46°45' W 092°08'0 0.0
2017-Oct-11 23:30N 46°45' W 092°08'0 0.0
2017-Oct-11 23:00N 46°45' W 092°08'0 0.0
2017-Oct-11 22:30N 46°45' W 092°08'0 0.0
2017-Oct-11 22:00N 46°45' W 092°08'0 0.0
2017-Oct-11 21:30N 46°45' W 092°08'0 0.0
2017-Oct-11 21:00N 46°45' W 092°08'0 0.0
2017-Oct-11 20:30N 46°45' W 092°08'0 0.0
2017-Oct-11 20:00N 46°45' W 092°08'0 0.0
2017-Oct-11 19:31N 46°45' W 092°08'1 1.3
2017-Oct-11 19:00N 46°45' W 092°07'1 2.9
2017-Oct-11 18:30N 46°45' W 092°06'2 3.4
2017-Oct-11 18:00N 46°47' W 092°05'4 8.6
2017-Oct-11 17:30N 46°49' W 091°59'612.4
2017-Oct-11 17:00N 46°51' W 091°51'321 9.6
2017-Oct-10 07:40N 46°15' W 084°06'14 9.0
2017-Oct-10 06:06N 46°03' W 083°56'1810.6
2017-Oct-10 04:24N 45°47' W 083°43'511.8
2017-Oct-10 04:00N 45°43' W 083°39'711.7
2017-Oct-10 03:26N 45°38' W 083°33'511.8
2017-Oct-10 03:00N 45°33' W 083°29'611.8
2017-Oct-10 02:30N 45°29' W 083°24'  

Dump ship's entire track history